Terminal Aerodrome Forecast
Issued by NWS

Home | Current Version | Previous Version | Graphics & Text | Print | Product List | Glossary On
Versions: 1 2 3 4 5 6 7 8 9 10 11 12 13 14 15 16 17 18 19 20 21 22 23 24 25 26 27 28
425
FTUS43 KBIS 200521
TAFDIK
TAF
KDIK 200521Z 2006/2106 09007KT P6SM BKN200
     FM201500 14012G20KT P6SM SCT035 SCT080
     FM210100 15012KT P6SM SCT030 BKN080=

USA.gov is the U.S. government's official web portal to all federal, state and local government web resources and services.